sensor_id;sensor_type;location;lat;lon;timestamp;pressure;altitude;pressure_sealevel;temperature;humidity
68948;BME280;55996;49.546;7.400;2024-01-15T00:00:26;97667.94;;;-3.61;100.00
68948;BME280;55996;49.546;7.400;2024-01-15T00:02:52;97658.47;;;-3.71;100.00
68948;BME280;55996;49.546;7.400;2024-01-15T00:05:17;97648.22;;;-3.77;100.00
68948;BME280;55996;49.546;7.400;2024-01-15T00:07:42;97662.75;;;-3.70;100.00
68948;BME280;55996;49.546;7.400;2024-01-15T00:10:08;97654.25;;;-3.67;100.00
68948;BME280;55996;49.546;7.400;2024-01-15T00:12:33;97640.59;;;-3.74;100.00
68948;BME280;55996;49.546;7.400;2024-01-15T00:14:59;97648.38;;;-3.55;100.00
68948;BME280;55996;49.546;7.400;2024-01-15T00:17:24;97640.72;;;-3.54;100.00
68948;BME280;55996;49.546;7.400;2024-01-15T00:19:49;97611.56;;;-3.87;100.00
68948;BME280;55996;49.546;7.400;2024-01-15T00:22:15;97633.81;;;-3.72;100.00
68948;BME280;55996;49.546;7.400;2024-01-15T00:24:40;97621.03;;;-3.72;100.00
68948;BME280;55996;49.546;7.400;2024-01-15T00:27:05;97632.09;;;-3.71;100.00
68948;BME280;55996;49.546;7.400;2024-01-15T00:29:31;97625.34;;;-3.63;100.00
68948;BME280;55996;49.546;7.400;2024-01-15T00:31:56;97621.19;;;-3.47;100.00
68948;BME280;55996;49.546;7.400;2024-01-15T00:34:21;97625.44;;;-3.49;100.00
68948;BME280;55996;49.546;7.400;2024-01-15T00:36:47;97603.16;;;-3.72;100.00
68948;BME280;55996;49.546;7.400;2024-01-15T00:39:12;97624.50;;;-3.59;100.00
68948;BME280;55996;49.546;7.400;2024-01-15T00:41:37;97627.94;;;-3.52;100.00
68948;BME280;55996;49.546;7.400;2024-01-15T00:44:03;97633.03;;;-3.59;100.00
68948;BME280;55996;49.546;7.400;2024-01-15T00:46:28;97615.97;;;-3.61;100.00
68948;BME280;55996;49.546;7.400;2024-01-15T00:48:54;97612.53;;;-3.68;100.00
68948;BME280;55996;49.546;7.400;2024-01-15T00:51:25;97631.41;;;-3.47;100.00
68948;BME280;55996;49.546;7.400;2024-01-15T00:53:50;97638.16;;;-3.52;100.00
68948;BME280;55996;49.546;7.400;2024-01-15T00:56:15;97625.31;;;-3.66;100.00
68948;BME280;55996;49.546;7.400;2024-01-15T00:58:41;97636.41;;;-3.61;100.00
68948;BME280;55996;49.546;7.400;2024-01-15T01:01:06;97639.00;;;-3.55;100.00
68948;BME280;55996;49.546;7.400;2024-01-15T01:03:31;97615.09;;;-3.68;100.00
68948;BME280;55996;49.546;7.400;2024-01-15T01:05:57;97624.56;;;-3.54;100.00
68948;BME280;55996;49.546;7.400;2024-01-15T01:08:22;97633.06;;;-3.54;100.00
68948;BME280;55996;49.546;7.400;2024-01-15T01:10:47;97621.13;;;-3.57;100.00
68948;BME280;55996;49.546;7.400;2024-01-15T01:13:13;97627.06;;;-3.59;100.00
68948;BME280;55996;49.546;7.400;2024-01-15T01:15:38;97622.00;;;-3.54;100.00
68948;BME280;55996;49.546;7.400;2024-01-15T01:18:04;97621.09;;;-3.64;100.00
68948;BME280;55996;49.546;7.400;2024-01-15T01:20:30;97618.59;;;-3.52;100.00
68948;BME280;55996;49.546;7.400;2024-01-15T01:22:55;97624.50;;;-3.61;100.00
68948;BME280;55996;49.546;7.400;2024-01-15T01:25:20;97622.00;;;-3.53;100.00
68948;BME280;55996;49.546;7.400;2024-01-15T01:27:46;97627.19;;;-3.41;100.00
68948;BME280;55996;49.546;7.400;2024-01-15T01:30:11;97616.06;;;-3.47;100.00
68948;BME280;55996;49.546;7.400;2024-01-15T01:32:37;97616.88;;;-3.51;100.00
68948;BME280;55996;49.546;7.400;2024-01-15T01:35:02;97612.66;;;-3.46;100.00
68948;BME280;55996;49.546;7.400;2024-01-15T01:37:28;97603.25;;;-3.55;100.00
68948;BME280;55996;49.546;7.400;2024-01-15T01:39:53;97606.69;;;-3.45;100.00
68948;BME280;55996;49.546;7.400;2024-01-15T01:42:18;97615.28;;;-3.35;100.00
68948;BME280;55996;49.546;7.400;2024-01-15T01:44:44;97622.06;;;-3.41;100.00
68948;BME280;55996;49.546;7.400;2024-01-15T01:47:09;97607.56;;;-3.45;100.00
68948;BME280;55996;49.546;7.400;2024-01-15T01:49:35;97618.69;;;-3.32;100.00
68948;BME280;55996;49.546;7.400;2024-01-15T01:52:05;97600.75;;;-3.44;100.00
68948;BME280;55996;49.546;7.400;2024-01-15T01:54:32;97622.06;;;-3.39;100.00
68948;BME280;55996;49.546;7.400;2024-01-15T01:56:58;97625.50;;;-3.38;100.00
68948;BME280;55996;49.546;7.400;2024-01-15T01:59:25;97625.50;;;-3.34;100.00
68948;BME280;55996;49.546;7.400;2024-01-15T02:01:54;97623.84;;;-3.22;100.00
68948;BME280;55996;49.546;7.400;2024-01-15T02:04:19;97620.47;;;-3.20;100.00
68948;BME280;55996;49.546;7.400;2024-01-15T02:06:45;97608.53;;;-3.21;100.00
68948;BME280;55996;49.546;7.400;2024-01-15T02:09:11;97617.06;;;-3.14;100.00
68948;BME280;55996;49.546;7.400;2024-01-15T02:11:40;97608.56;;;-3.15;100.00
68948;BME280;55996;49.546;7.400;2024-01-15T02:14:06;97603.38;;;-3.24;100.00
68948;BME280;55996;49.546;7.400;2024-01-15T02:16:31;97594.88;;;-3.21;100.00
68948;BME280;55996;49.546;7.400;2024-01-15T02:18:56;97603.44;;;-3.12;100.00
68948;BME280;55996;49.546;7.400;2024-01-15T02:21:22;97599.19;;;-3.14;100.00
68948;BME280;55996;49.546;7.400;2024-01-15T02:23:47;97587.25;;;-3.14;100.00
68948;BME280;55996;49.546;7.400;2024-01-15T02:26:12;97598.31;;;-3.12;100.00
68948;BME280;55996;49.546;7.400;2024-01-15T02:28:38;97606.84;;;-3.16;100.00
68948;BME280;55996;49.546;7.400;2024-01-15T02:31:04;97590.69;;;-3.07;100.00
68948;BME280;55996;49.546;7.400;2024-01-15T02:33:29;97599.19;;;-3.10;100.00
68948;BME280;55996;49.546;7.400;2024-01-15T02:35:54;97593.16;;;-3.26;100.00
68948;BME280;55996;49.546;7.400;2024-01-15T02:38:20;97582.91;;;-3.36;100.00
68948;BME280;55996;49.546;7.400;2024-01-15T02:40:45;97599.16;;;-3.23;100.00
68948;BME280;55996;49.546;7.400;2024-01-15T02:43:11;97590.59;;;-3.30;100.00
68948;BME280;55996;49.546;7.400;2024-01-15T02:45:37;97587.22;;;-3.21;100.00
68948;BME280;55996;49.546;7.400;2024-01-15T02:48:02;97571.00;;;-3.25;100.00
68948;BME280;55996;49.546;7.400;2024-01-15T02:50:28;97575.31;;;-3.21;100.00
68948;BME280;55996;49.546;7.400;2024-01-15T02:52:53;97589.78;;;-3.23;100.00
68948;BME280;55996;49.546;7.400;2024-01-15T02:55:19;97597.47;;;-3.09;100.00
68948;BME280;55996;49.546;7.400;2024-01-15T02:57:44;97583.00;;;-3.05;100.00
68948;BME280;55996;49.546;7.400;2024-01-15T03:00:10;97586.38;;;-3.19;100.00
68948;BME280;55996;49.546;7.400;2024-01-15T03:02:37;97582.16;;;-3.11;100.00
68948;BME280;55996;49.546;7.400;2024-01-15T03:05:06;97596.66;;;-3.02;100.00
68948;BME280;55996;49.546;7.400;2024-01-15T03:07:31;97594.09;;;-3.05;100.00
68948;BME280;55996;49.546;7.400;2024-01-15T03:09:57;97569.34;;;-3.20;100.00
68948;BME280;55996;49.546;7.400;2024-01-15T03:12:22;97583.03;;;-3.09;100.00
68948;BME280;55996;49.546;7.400;2024-01-15T03:14:47;97590.69;;;-3.07;100.00
68948;BME280;55996;49.546;7.400;2024-01-15T03:17:13;97603.44;;;-3.10;100.00
68948;BME280;55996;49.546;7.400;2024-01-15T03:19:38;97583.88;;;-3.05;100.00
68948;BME280;55996;49.546;7.400;2024-01-15T03:22:03;97564.22;;;-3.21;100.00
68948;BME280;55996;49.546;7.400;2024-01-15T03:24:29;97578.69;;;-3.20;100.00
68948;BME280;55996;49.546;7.400;2024-01-15T03:26:55;97562.53;;;-3.19;100.00
68948;BME280;55996;49.546;7.400;2024-01-15T03:29:20;97568.53;;;-3.02;100.00
68948;BME280;55996;49.546;7.400;2024-01-15T03:31:46;97565.13;;;-3.05;100.00
68948;BME280;55996;49.546;7.400;2024-01-15T03:34:11;97554.88;;;-3.13;100.00
68948;BME280;55996;49.546;7.400;2024-01-15T03:36:36;97559.16;;;-3.08;100.00
68948;BME280;55996;49.546;7.400;2024-01-15T03:39:02;97560.81;;;-3.13;100.00
68948;BME280;55996;49.546;7.400;2024-01-15T03:41:27;97552.31;;;-3.12;100.00
68948;BME280;55996;49.546;7.400;2024-01-15T03:43:53;97540.41;;;-3.05;100.00
68948;BME280;55996;49.546;7.400;2024-01-15T03:46:18;97544.69;;;-3.01;100.00
68948;BME280;55996;49.546;7.400;2024-01-15T03:48:43;97562.56;;;-3.01;100.00
68948;BME280;55996;49.546;7.400;2024-01-15T03:51:09;97544.69;;;-3.01;100.00
68948;BME280;55996;49.546;7.400;2024-01-15T03:53:34;97553.22;;;-2.99;100.00
68948;BME280;55996;49.546;7.400;2024-01-15T03:55:59;97547.22;;;-3.07;100.00
68948;BME280;55996;49.546;7.400;2024-01-15T03:58:25;97540.41;;;-3.03;100.00
68948;BME280;55996;49.546;7.400;2024-01-15T04:00:50;97534.47;;;-3.02;100.00
68948;BME280;55996;49.546;7.400;2024-01-15T04:03:15;97544.69;;;-3.02;100.00
68948;BME280;55996;49.546;7.400;2024-01-15T04:05:41;97529.34;;;-2.95;100.00
68948;BME280;55996;49.546;7.400;2024-01-15T04:08:06;97536.19;;;-2.94;100.00
68948;BME280;55996;49.546;7.400;2024-01-15T04:10:32;97502.91;;;-2.97;100.00
68948;BME280;55996;49.546;7.400;2024-01-15T04:12:57;97516.56;;;-3.01;100.00
68948;BME280;55996;49.546;7.400;2024-01-15T04:15:24;97494.41;;;-3.05;100.00
68948;BME280;55996;49.546;7.400;2024-01-15T04:17:51;97511.47;;;-2.88;100.00
68948;BME280;55996;49.546;7.400;2024-01-15T04:20:17;97498.69;;;-2.88;100.00
68948;BME280;55996;49.546;7.400;2024-01-15T04:22:43;97507.22;;;-2.86;100.00
68948;BME280;55996;49.546;7.400;2024-01-15T04:25:09;97492.69;;;-2.98;100.00
68948;BME280;55996;49.546;7.400;2024-01-15T04:27:34;97499.53;;;-2.89;100.00
68948;BME280;55996;49.546;7.400;2024-01-15T04:30:00;97480.75;;;-2.93;100.00
68948;BME280;55996;49.546;7.400;2024-01-15T04:32:25;97492.72;;;-2.84;100.00
68948;BME280;55996;49.546;7.400;2024-01-15T04:34:50;97491.84;;;-2.96;100.00
68948;BME280;55996;49.546;7.400;2024-01-15T04:37:16;97500.38;;;-2.87;100.00
68948;BME280;55996;49.546;7.400;2024-01-15T04:39:41;97494.41;;;-2.89;100.00
68948;BME280;55996;49.546;7.400;2024-01-15T04:42:06;97485.03;;;-2.84;100.00
68948;BME280;55996;49.546;7.400;2024-01-15T04:44:32;97481.63;;;-2.89;100.00
68948;BME280;55996;49.546;7.400;2024-01-15T04:46:57;97497.84;;;-2.80;100.00
68948;BME280;55996;49.546;7.400;2024-01-15T04:49:22;97485.88;;;-2.93;100.00
68948;BME280;55996;49.546;7.400;2024-01-15T04:51:48;97498.69;;;-2.81;100.00
68948;BME280;55996;49.546;7.400;2024-01-15T04:54:13;97490.16;;;-2.78;100.00
68948;BME280;55996;49.546;7.400;2024-01-15T04:56:43;97502.97;;;-2.67;100.00
68948;BME280;55996;49.546;7.400;2024-01-15T04:59:08;97485.91;;;-2.71;100.00
68948;BME280;55996;49.546;7.400;2024-01-15T05:01:33;97497.00;;;-2.65;100.00
68948;BME280;55996;49.546;7.400;2024-01-15T05:03:59;97502.97;;;-2.56;100.00
68948;BME280;55996;49.546;7.400;2024-01-15T05:06:24;97491.88;;;-2.65;100.00
68948;BME280;55996;49.546;7.400;2024-01-15T05:08:50;97488.44;;;-2.67;100.00
68948;BME280;55996;49.546;7.400;2024-01-15T05:11:15;97494.44;;;-2.60;100.00
68948;BME280;55996;49.546;7.400;2024-01-15T05:13:41;97474.81;;;-2.53;100.00
68948;BME280;55996;49.546;7.400;2024-01-15T05:16:06;97472.28;;;-2.70;100.00
68948;BME280;55996;49.546;7.400;2024-01-15T05:18:32;97482.47;;;-2.72;100.00
68948;BME280;55996;49.546;7.400;2024-01-15T05:20:57;97469.69;;;-2.72;100.00
68948;BME280;55996;49.546;7.400;2024-01-15T05:23:22;97478.22;;;-2.67;100.00
68948;BME280;55996;49.546;7.400;2024-01-15T05:25:48;97465.44;;;-2.68;100.00
68948;BME280;55996;49.546;7.400;2024-01-15T05:28:14;97459.47;;;-2.69;100.00
68948;BME280;55996;49.546;7.400;2024-01-15T05:30:39;97468.00;;;-2.51;100.00
68948;BME280;55996;49.546;7.400;2024-01-15T05:33:04;97466.28;;;-2.65;100.00
68948;BME280;55996;49.546;7.400;2024-01-15T05:35:30;97439.88;;;-2.78;100.00
68948;BME280;55996;49.546;7.400;2024-01-15T05:37:55;97460.31;;;-2.62;100.00
68948;BME280;55996;49.546;7.400;2024-01-15T05:40:21;97455.19;;;-2.54;100.00
68948;BME280;55996;49.546;7.400;2024-01-15T05:42:46;97461.19;;;-2.49;100.00
68948;BME280;55996;49.546;7.400;2024-01-15T05:45:12;97465.44;;;-2.40;100.00
68948;BME280;55996;49.546;7.400;2024-01-15T05:47:37;97472.25;;;-2.55;100.00
68948;BME280;55996;49.546;7.400;2024-01-15T05:50:02;97464.59;;;-2.50;100.00
68948;BME280;55996;49.546;7.400;2024-01-15T05:52:28;97460.31;;;-2.47;100.00
68948;BME280;55996;49.546;7.400;2024-01-15T05:54:53;97460.31;;;-2.50;100.00
68948;BME280;55996;49.546;7.400;2024-01-15T05:57:18;97459.44;;;-2.42;100.00
68948;BME280;55996;49.546;7.400;2024-01-15T05:59:44;97440.69;;;-2.43;100.00
68948;BME280;55996;49.546;7.400;2024-01-15T06:02:10;97460.31;;;-2.39;100.00
68948;BME280;55996;49.546;7.400;2024-01-15T06:04:36;97451.75;;;-2.41;100.00
68948;BME280;55996;49.546;7.400;2024-01-15T06:07:01;97449.22;;;-2.44;100.00
68948;BME280;55996;49.546;7.400;2024-01-15T06:09:26;97448.34;;;-2.34;100.00
68948;BME280;55996;49.546;7.400;2024-01-15T06:11:53;97456.03;;;-2.34;100.00
68948;BME280;55996;49.546;7.400;2024-01-15T06:14:18;97452.63;;;-2.39;100.00
68948;BME280;55996;49.546;7.400;2024-01-15T06:16:43;97455.16;;;-2.31;100.00
68948;BME280;55996;49.546;7.400;2024-01-15T06:19:09;97457.72;;;-2.31;100.00
68948;BME280;55996;49.546;7.400;2024-01-15T06:21:34;97453.50;;;-2.37;100.00
68948;BME280;55996;49.546;7.400;2024-01-15T06:23:59;97462.00;;;-2.32;100.00
68948;BME280;55996;49.546;7.400;2024-01-15T06:26:25;97450.06;;;-2.37;100.00
68948;BME280;55996;49.546;7.400;2024-01-15T06:28:50;97450.03;;;-2.36;100.00
68948;BME280;55996;49.546;7.400;2024-01-15T06:31:15;97463.69;;;-2.29;100.00
68948;BME280;55996;49.546;7.400;2024-01-15T06:33:41;97463.69;;;-2.23;100.00
68948;BME280;55996;49.546;7.400;2024-01-15T06:36:06;97438.97;;;-2.41;100.00
68948;BME280;55996;49.546;7.400;2024-01-15T06:38:32;97460.28;;;-2.27;100.00
68948;BME280;55996;49.546;7.400;2024-01-15T06:40:57;97456.84;;;-2.27;100.00
68948;BME280;55996;49.546;7.400;2024-01-15T06:43:22;97444.91;;;-2.30;100.00
68948;BME280;55996;49.546;7.400;2024-01-15T06:45:48;97446.63;;;-2.19;100.00
68948;BME280;55996;49.546;7.400;2024-01-15T06:48:13;97442.34;;;-2.25;100.00
68948;BME280;55996;49.546;7.400;2024-01-15T06:50:41;97438.97;;;-2.30;100.00
68948;BME280;55996;49.546;7.400;2024-01-15T06:53:06;97432.97;;;-2.23;100.00
68948;BME280;55996;49.546;7.400;2024-01-15T06:55:32;97422.75;;;-2.31;100.00
68948;BME280;55996;49.546;7.400;2024-01-15T06:57:57;97425.28;;;-2.17;100.00
68948;BME280;55996;49.546;7.400;2024-01-15T07:00:22;97427.00;;;-2.20;100.00
68948;BME280;55996;49.546;7.400;2024-01-15T07:02:48;97419.34;;;-2.33;100.00
68948;BME280;55996;49.546;7.400;2024-01-15T07:05:13;97419.31;;;-2.20;100.00
68948;BME280;55996;49.546;7.400;2024-01-15T07:07:39;97418.47;;;-2.24;100.00
68948;BME280;55996;49.546;7.400;2024-01-15T07:10:05;97432.09;;;-2.14;100.00
68948;BME280;55996;49.546;7.400;2024-01-15T07:12:31;97421.00;;;-2.12;100.00
68948;BME280;55996;49.546;7.400;2024-01-15T07:14:56;97413.34;;;-2.25;100.00
68948;BME280;55996;49.546;7.400;2024-01-15T07:17:22;97427.81;;;-2.14;100.00
68948;BME280;55996;49.546;7.400;2024-01-15T07:19:47;97414.19;;;-2.20;100.00
68948;BME280;55996;49.546;7.400;2024-01-15T07:22:13;97426.13;;;-2.18;100.00
68948;BME280;55996;49.546;7.400;2024-01-15T07:24:38;97428.66;;;-2.07;100.00
68948;BME280;55996;49.546;7.400;2024-01-15T07:27:04;97426.97;;;-2.08;100.00
68948;BME280;55996;49.546;7.400;2024-01-15T07:29:30;97424.38;;;-2.00;100.00
68948;BME280;55996;49.546;7.400;2024-01-15T07:31:56;97414.97;;;-2.03;100.00
68948;BME280;55996;49.546;7.400;2024-01-15T07:34:21;97418.41;;;-2.10;100.00
68948;BME280;55996;49.546;7.400;2024-01-15T07:36:47;97425.19;;;-1.95;100.00
68948;BME280;55996;49.546;7.400;2024-01-15T07:39:13;97416.72;;;-2.14;100.00
68948;BME280;55996;49.546;7.400;2024-01-15T07:41:39;97401.38;;;-2.17;100.00
68948;BME280;55996;49.546;7.400;2024-01-15T07:44:04;97415.03;;;-2.11;100.00
68948;BME280;55996;49.546;7.400;2024-01-15T07:46:30;97401.38;;;-2.09;100.00
68948;BME280;55996;49.546;7.400;2024-01-15T07:48:55;97414.94;;;-1.90;100.00
68948;BME280;55996;49.546;7.400;2024-01-15T07:51:24;97430.31;;;-1.92;100.00
68948;BME280;55996;49.546;7.400;2024-01-15T07:53:50;97414.16;;;-2.08;100.00
68948;BME280;55996;49.546;7.400;2024-01-15T07:56:16;97429.50;;;-1.97;100.00
68948;BME280;55996;49.546;7.400;2024-01-15T07:58:42;97438.84;;;-1.87;100.00
68948;BME280;55996;49.546;7.400;2024-01-15T08:01:07;97416.72;;;-2.11;100.00
68948;BME280;55996;49.546;7.400;2024-01-15T08:03:33;97441.44;;;-1.95;100.00
68948;BME280;55996;49.546;7.400;2024-01-15T08:05:59;97427.78;;;-2.03;100.00
68948;BME280;55996;49.546;7.400;2024-01-15T08:08:25;97431.22;;;-2.05;100.00
68948;BME280;55996;49.546;7.400;2024-01-15T08:10:52;97403.03;;;-2.04;100.00
68948;BME280;55996;49.546;7.400;2024-01-15T08:13:17;97421.78;;;-1.94;100.00
68948;BME280;55996;49.546;7.400;2024-01-15T08:15:43;97428.56;;;-1.85;100.00
68948;BME280;55996;49.546;7.400;2024-01-15T08:18:08;97414.09;;;-1.89;100.00
68948;BME280;55996;49.546;7.400;2024-01-15T08:20:34;97412.38;;;-1.93;100.00
68948;BME280;55996;49.546;7.400;2024-01-15T08:23:00;97416.63;;;-1.85;100.00
68948;BME280;55996;49.546;7.400;2024-01-15T08:25:25;97409.84;;;-1.97;100.00
68948;BME280;55996;49.546;7.400;2024-01-15T08:27:51;97414.03;;;-1.77;100.00
68948;BME280;55996;49.546;7.400;2024-01-15T08:30:17;97414.00;;;-1.71;100.00
68948;BME280;55996;49.546;7.400;2024-01-15T08:32:44;97395.25;;;-1.76;100.00
68948;BME280;55996;49.546;7.400;2024-01-15T08:35:10;97402.97;;;-1.82;100.00
68948;BME280;55996;49.546;7.400;2024-01-15T08:37:35;97408.91;;;-1.72;100.00
68948;BME280;55996;49.546;7.400;2024-01-15T08:40:01;97412.34;;;-1.80;100.00
68948;BME280;55996;49.546;7.400;2024-01-15T08:42:26;97414.88;;;-1.81;100.00
68948;BME280;55996;49.546;7.400;2024-01-15T08:44:51;97420.03;;;-1.84;100.00
68948;BME280;55996;49.546;7.400;2024-01-15T08:47:16;97419.97;;;-1.75;100.00
68948;BME280;55996;49.546;7.400;2024-01-15T08:49:42;97424.28;;;-1.72;100.00
68948;BME280;55996;49.546;7.400;2024-01-15T08:52:09;97419.97;;;-1.75;100.00
68948;BME280;55996;49.546;7.400;2024-01-15T08:54:34;97405.47;;;-1.73;100.00
68948;BME280;55996;49.546;7.400;2024-01-15T08:57:00;97413.22;;;-1.82;100.00
68948;BME280;55996;49.546;7.400;2024-01-15T08:59:25;97401.16;;;-1.68;100.00
68948;BME280;55996;49.546;7.400;2024-01-15T09:01:52;97418.19;;;-1.54;100.00
68948;BME280;55996;49.546;7.400;2024-01-15T09:04:18;97407.91;;;-1.45;100.00
68948;BME280;55996;49.546;7.400;2024-01-15T09:06:47;97402.78;;;-1.48;100.00
68948;BME280;55996;49.546;7.400;2024-01-15T09:09:13;97407.88;;;-1.39;100.00
68948;BME280;55996;49.546;7.400;2024-01-15T09:11:41;97424.84;;;-1.24;100.00
68948;BME280;55996;49.546;7.400;2024-01-15T09:14:07;97421.41;;;-1.23;100.00
68948;BME280;55996;49.546;7.400;2024-01-15T09:16:33;97417.09;;;-1.11;100.00
68948;BME280;55996;49.546;7.400;2024-01-15T09:18:59;97422.28;;;-1.22;100.00
68948;BME280;55996;49.546;7.400;2024-01-15T09:21:25;97416.34;;;-1.27;100.00
68948;BME280;55996;49.546;7.400;2024-01-15T09:23:50;97425.69;;;-1.22;100.00
68948;BME280;55996;49.546;7.400;2024-01-15T09:26:16;97430.81;;;-1.22;100.00
68948;BME280;55996;49.546;7.400;2024-01-15T09:28:41;97424.84;;;-1.25;100.00
68948;BME280;55996;49.546;7.400;2024-01-15T09:31:07;97417.09;;;-1.15;100.00
68948;BME280;55996;49.546;7.400;2024-01-15T09:33:32;97402.63;;;-1.20;100.00
68948;BME280;55996;49.546;7.400;2024-01-15T09:36:02;97407.00;;;-1.36;100.00
68948;BME280;55996;49.546;7.400;2024-01-15T09:38:29;97400.91;;;-1.21;100.00
68948;BME280;55996;49.546;7.400;2024-01-15T09:40:54;97400.03;;;-1.19;100.00
68948;BME280;55996;49.546;7.400;2024-01-15T09:43:21;97406.06;;;-1.29;100.00
68948;BME280;55996;49.546;7.400;2024-01-15T09:45:46;97406.88;;;-1.21;100.00
68948;BME280;55996;49.546;7.400;2024-01-15T09:48:12;97406.00;;;-1.18;100.00
68948;BME280;55996;49.546;7.400;2024-01-15T09:50:38;97400.81;;;-1.09;100.00
68948;BME280;55996;49.546;7.400;2024-01-15T09:53:05;97408.53;;;-1.14;100.00
68948;BME280;55996;49.546;7.400;2024-01-15T09:55:30;97391.38;;;-1.05;100.00
68948;BME280;55996;49.546;7.400;2024-01-15T09:57:58;97402.41;;;-0.97;100.00
68948;BME280;55996;49.546;7.400;2024-01-15T10:00:25;97396.41;;;-0.94;100.00
68948;BME280;55996;49.546;7.400;2024-01-15T10:02:51;97411.84;;;-1.01;100.00
68948;BME280;55996;49.546;7.400;2024-01-15T10:05:16;97400.75;;;-1.04;100.00
68948;BME280;55996;49.546;7.400;2024-01-15T10:07:42;97399.88;;;-0.99;100.00
68948;BME280;55996;49.546;7.400;2024-01-15T10:10:10;97392.22;;;-1.02;100.00
68948;BME280;55996;49.546;7.400;2024-01-15T10:12:36;97407.47;;;-0.86;100.00
68948;BME280;55996;49.546;7.400;2024-01-15T10:15:01;97401.47;;;-0.84;100.00
68948;BME280;55996;49.546;7.400;2024-01-15T10:17:26;97395.53;;;-0.92;100.00
68948;BME280;55996;49.546;7.400;2024-01-15T10:19:56;97401.47;;;-0.84;100.00
68948;BME280;55996;49.546;7.400;2024-01-15T10:22:22;97390.41;;;-0.90;100.00
68948;BME280;55996;49.546;7.400;2024-01-15T10:24:48;97386.16;;;-0.94;100.00
68948;BME280;55996;49.546;7.400;2024-01-15T10:27:14;97378.44;;;-0.91;100.00
68948;BME280;55996;49.546;7.400;2024-01-15T10:29:41;97378.44;;;-0.91;100.00
68948;BME280;55996;49.546;7.400;2024-01-15T10:32:07;97382.66;;;-0.86;100.00
68948;BME280;55996;49.546;7.400;2024-01-15T10:34:40;97381.88;;;-0.89;100.00
68948;BME280;55996;49.546;7.400;2024-01-15T10:37:07;97381.88;;;-0.89;100.00
68948;BME280;55996;49.546;7.400;2024-01-15T10:39:32;97373.38;;;-1.01;100.00
68948;BME280;55996;49.546;7.400;2024-01-15T10:41:58;97373.28;;;-0.88;100.00
68948;BME280;55996;49.546;7.400;2024-01-15T10:44:25;97381.69;;;-0.71;100.00
68948;BME280;55996;49.546;7.400;2024-01-15T10:46:50;97381.75;;;-0.77;100.00
68948;BME280;55996;49.546;7.400;2024-01-15T10:49:16;97366.44;;;-0.88;100.00
68948;BME280;55996;49.546;7.400;2024-01-15T10:51:44;97374.09;;;-0.85;100.00
68948;BME280;55996;49.546;7.400;2024-01-15T10:54:10;97349.34;;;-0.92;100.00
68948;BME280;55996;49.546;7.400;2024-01-15T10:56:37;97354.50;;;-0.92;100.00
68948;BME280;55996;49.546;7.400;2024-01-15T10:59:03;97354.41;;;-0.81;100.00
68948;BME280;55996;49.546;7.400;2024-01-15T11:01:30;97359.41;;;-0.69;100.00
68948;BME280;55996;49.546;7.400;2024-01-15T11:03:56;97350.06;;;-0.73;100.00
68948;BME280;55996;49.546;7.400;2024-01-15T11:06:24;97332.03;;;-0.67;100.00
68948;BME280;55996;49.546;7.400;2024-01-15T11:08:51;97331.97;;;-0.60;100.00
68948;BME280;55996;49.546;7.400;2024-01-15T11:11:17;97335.41;;;-0.61;100.00
68948;BME280;55996;49.546;7.400;2024-01-15T11:13:43;97338.81;;;-0.62;100.00
68948;BME280;55996;49.546;7.400;2024-01-15T11:16:12;97337.22;;;-0.73;100.00
68948;BME280;55996;49.546;7.400;2024-01-15T11:18:42;97331.91;;;-0.54;100.00
68948;BME280;55996;49.546;7.400;2024-01-15T11:23:58;97329.31;;;-0.53;100.00
68948;BME280;55996;49.546;7.400;2024-01-15T11:28:52;97346.09;;;-0.24;100.00
68948;BME280;55996;49.546;7.400;2024-01-15T11:31:18;97340.88;;;-0.14;100.00
68948;BME280;55996;49.546;7.400;2024-01-15T11:33:49;97340.81;;;-0.11;100.00
68948;BME280;55996;49.546;7.400;2024-01-15T11:36:15;97348.56;;;-0.13;100.00
68948;BME280;55996;49.546;7.400;2024-01-15T11:38:40;97357.31;;;-0.33;100.00
68948;BME280;55996;49.546;7.400;2024-01-15T11:41:15;97365.81;;;-0.24;100.00
68948;BME280;55996;49.546;7.400;2024-01-15T11:43:43;97359.97;;;-0.37;100.00
68948;BME280;55996;49.546;7.400;2024-01-15T11:46:11;97368.25;;;-0.13;100.00
68948;BME280;55996;49.546;7.400;2024-01-15T11:48:44;97369.09;;;-0.10;100.00
68948;BME280;55996;49.546;7.400;2024-01-15T11:51:12;97367.41;;;-0.14;100.00
68948;BME280;55996;49.546;7.400;2024-01-15T11:53:48;97371.91;;;-0.36;100.00
68948;BME280;55996;49.546;7.400;2024-01-15T11:56:17;97377.81;;;-0.26;100.00
68948;BME280;55996;49.546;7.400;2024-01-15T11:58:46;97356.53;;;-0.38;100.00
68948;BME280;55996;49.546;7.400;2024-01-15T12:01:12;97373.72;;;-0.43;100.00
68948;BME280;55996;49.546;7.400;2024-01-15T12:03:37;97369.44;;;-0.44;100.00
68948;BME280;55996;49.546;7.400;2024-01-15T12:06:06;97356.50;;;-0.36;100.00
68948;BME280;55996;49.546;7.400;2024-01-15T12:08:32;97365.03;;;-0.31;100.00
68948;BME280;55996;49.546;7.400;2024-01-15T12:10:57;97363.34;;;-0.32;100.00
68948;BME280;55996;49.546;7.400;2024-01-15T12:13:23;97353.84;;;-0.27;100.00
68948;BME280;55996;49.546;7.400;2024-01-15T12:15:48;97369.16;;;-0.18;100.00
68948;BME280;55996;49.546;7.400;2024-01-15T12:18:16;97375.13;;;-0.15;100.00
68948;BME280;55996;49.546;7.400;2024-01-15T12:20:42;97360.63;;;-0.21;100.00
68948;BME280;55996;49.546;7.400;2024-01-15T12:23:09;97359.78;;;-0.22;100.00
68948;BME280;55996;49.546;7.400;2024-01-15T12:25:35;97378.53;;;-0.13;100.00
68948;BME280;55996;49.546;7.400;2024-01-15T12:28:02;97383.56;;;-0.04;100.00
68948;BME280;55996;49.546;7.400;2024-01-15T12:30:29;97386.03;;;0.04;100.00
68948;BME280;55996;49.546;7.400;2024-01-15T12:32:56;97385.09;;;0.11;100.00
68948;BME280;55996;49.546;7.400;2024-01-15T12:35:24;97393.88;;;-0.07;100.00
68948;BME280;55996;49.546;7.400;2024-01-15T12:37:49;97403.94;;;0.11;100.00
68948;BME280;55996;49.546;7.400;2024-01-15T12:40:18;97389.50;;;-0.01;100.00
68948;BME280;55996;49.546;7.400;2024-01-15T12:42:44;97387.84;;;-0.05;100.00
68948;BME280;55996;49.546;7.400;2024-01-15T12:45:11;97386.22;;;-0.15;100.00
68948;BME280;55996;49.546;7.400;2024-01-15T12:47:38;97390.31;;;0.03;100.00